Time;durP1;ratioP1;P1;durP2;ratioP2;P2;SDS_P1;SDS_P2;PMS_P1;PMS_P2;Temp;Humidity;BMP_temperature;BMP_pressure;BME280_temperature;BME280_humidity;BME280_pressure;Samples;Min_cycle;Max_cycle;Signal;HPM_P1;HPM_P2
2021/11/25 00:00:18;;;;;;;9.60;8.60;;;7.50;99.90;;;;;;5024629;28;20409;-37
2021/11/25 00:02:44;;;;;;;9.30;8.20;;;7.30;99.90;;;;;;5026213;28;20519;-36
2021/11/25 00:05:10;;;;;;;10.43;8.70;;;7.30;99.90;;;;;;5026494;28;20190;-37
2021/11/25 00:07:36;;;;;;;8.70;7.60;;;7.30;99.90;;;;;;5015091;28;20752;-37
2021/11/25 00:10:06;;;;;;;9.20;8.03;;;7.40;99.90;;;;;;5010152;28;20912;-36
2021/11/25 00:12:32;;;;;;;8.90;8.03;;;7.20;99.90;;;;;;5011172;28;20430;-37
2021/11/25 00:14:57;;;;;;;9.60;8.60;;;7.40;99.90;;;;;;5022747;28;20987;-37
2021/11/25 00:17:23;;;;;;;8.30;7.07;;;7.20;99.90;;;;;;5015359;28;20692;-37
2021/11/25 00:19:49;;;;;;;7.87;6.67;;;7.20;99.90;;;;;;5008661;28;20187;-36
2021/11/25 00:22:15;;;;;;;8.10;7.30;;;7.40;99.90;;;;;;5019234;28;20604;-37
2021/11/25 00:24:41;;;;;;;10.27;7.40;;;7.50;99.90;;;;;;5008430;28;20203;-36
2021/11/25 00:27:07;;;;;;;9.87;8.30;;;7.20;99.90;;;;;;5010873;28;20456;-37
2021/11/25 00:29:33;;;;;;;9.40;8.50;;;7.50;99.90;;;;;;5021499;28;20198;-37
2021/11/25 00:31:58;;;;;;;8.57;7.70;;;7.30;99.90;;;;;;5017536;28;20584;-36
2021/11/25 00:34:24;;;;;;;8.53;7.63;;;7.10;99.90;;;;;;5007857;28;20501;-36
2021/11/25 00:36:50;;;;;;;11.57;8.60;;;7.20;99.90;;;;;;5016223;28;20191;-36
2021/11/25 00:39:16;;;;;;;9.23;8.33;;;7.10;99.90;;;;;;5007385;28;20581;-36
2021/11/25 00:41:45;;;;;;;8.07;7.33;;;7.20;99.90;;;;;;5008907;28;20277;-36
2021/11/25 00:44:10;;;;;;;9.07;8.17;;;7.10;99.90;;;;;;5021445;28;20183;-36
2021/11/25 00:46:36;;;;;;;8.23;7.43;;;7.20;99.90;;;;;;5025132;28;20418;-36
2021/11/25 00:49:02;;;;;;;8.63;7.73;;;7.00;99.90;;;;;;5026613;28;20213;-36
2021/11/25 00:51:27;;;;;;;9.83;8.07;;;7.30;99.90;;;;;;5010382;28;20183;-37
2021/11/25 00:53:53;;;;;;;7.40;6.70;;;7.00;99.90;;;;;;5008464;28;20477;-36
2021/11/25 00:56:19;;;;;;;9.07;8.17;;;7.10;99.90;;;;;;5009116;28;20206;-37
2021/11/25 00:58:44;;;;;;;9.33;8.37;;;7.00;99.90;;;;;;5016022;28;20211;-36
2021/11/25 01:01:10;;;;;;;8.30;7.50;;;6.70;99.90;;;;;;5013964;28;20194;-36
2021/11/25 01:03:36;;;;;;;8.50;7.70;;;6.90;99.90;;;;;;5008236;28;20215;-36
2021/11/25 01:06:01;;;;;;;7.83;7.00;;;6.90;99.90;;;;;;5014505;28;20277;-36
2021/11/25 01:08:27;;;;;;;9.10;7.70;;;6.90;99.90;;;;;;5011972;28;20195;-37
2021/11/25 01:10:54;;;;;;;9.33;8.33;;;6.80;99.90;;;;;;5008802;28;20193;-36
2021/11/25 01:13:20;;;;;;;8.03;7.23;;;6.90;99.90;;;;;;5016483;28;20430;-36
2021/11/25 01:15:46;;;;;;;9.97;8.83;;;6.70;99.90;;;;;;5016346;28;21125;-37
2021/11/25 01:18:15;;;;;;;9.40;7.80;;;6.90;99.90;;;;;;5012042;28;20418;-36
2021/11/25 01:20:42;;;;;;;8.83;7.63;;;7.10;99.90;;;;;;5010398;28;20453;-36
2021/11/25 01:23:12;;;;;;;8.87;7.97;;;7.00;99.90;;;;;;5010450;28;20539;-36
2021/11/25 01:25:38;;;;;;;8.50;7.47;;;6.80;99.90;;;;;;5008537;28;20422;-36
2021/11/25 01:28:06;;;;;;;8.50;7.60;;;6.80;99.90;;;;;;5016424;28;20459;-36
2021/11/25 01:30:32;;;;;;;8.20;7.40;;;6.80;99.90;;;;;;5016717;28;20449;-37
2021/11/25 01:32:58;;;;;;;8.87;7.97;;;6.70;99.90;;;;;;5020327;28;20446;-36
2021/11/25 01:35:24;;;;;;;8.50;7.70;;;6.80;99.90;;;;;;5007242;28;20476;-36
2021/11/25 01:37:51;;;;;;;8.63;7.77;;;6.70;99.90;;;;;;5010238;28;20199;-36
2021/11/25 01:40:17;;;;;;;9.23;8.00;;;6.70;99.90;;;;;;5007357;28;20789;-36
2021/11/25 01:42:43;;;;;;;8.60;7.73;;;6.60;99.90;;;;;;5007861;28;20466;-36
2021/11/25 01:45:11;;;;;;;11.67;8.27;;;6.60;99.90;;;;;;5021284;28;20437;-36
2021/11/25 01:47:42;;;;;;;9.23;8.37;;;6.50;99.90;;;;;;5015413;28;20422;-36
2021/11/25 01:50:07;;;;;;;8.80;7.90;;;6.60;99.90;;;;;;5007949;28;20461;-36
2021/11/25 01:52:33;;;;;;;10.37;8.40;;;6.40;99.90;;;;;;5019084;28;20474;-36
2021/11/25 01:54:59;;;;;;;8.93;8.03;;;6.60;99.90;;;;;;5006636;28;20935;-36
2021/11/25 01:57:24;;;;;;;8.83;7.93;;;6.50;99.90;;;;;;5007992;28;20594;-37
2021/11/25 01:59:50;;;;;;;9.47;8.47;;;6.70;99.90;;;;;;5019984;28;20682;-37
2021/11/25 02:02:16;;;;;;;8.17;7.37;;;6.50;99.90;;;;;;5016379;28;20214;-36
2021/11/25 02:04:42;;;;;;;8.23;7.43;;;6.70;99.90;;;;;;5007604;28;20752;-36
2021/11/25 02:07:07;;;;;;;8.70;7.90;;;6.80;99.90;;;;;;5015222;28;20187;-37
2021/11/25 02:09:33;;;;;;;8.70;7.83;;;6.40;99.90;;;;;;5008115;28;20274;-36
2021/11/25 02:11:59;;;;;;;8.20;7.30;;;6.40;99.90;;;;;;5007326;28;20508;-36
2021/11/25 02:14:25;;;;;;;11.57;8.83;;;6.50;99.90;;;;;;5019002;28;20646;-36
2021/11/25 02:16:52;;;;;;;8.53;7.70;;;6.70;99.90;;;;;;5023135;28;20248;-36
2021/11/25 02:19:18;;;;;;;8.67;7.77;;;6.70;99.90;;;;;;5017484;28;20437;-36
2021/11/25 02:21:44;;;;;;;7.93;7.10;;;6.60;99.90;;;;;;5010754;28;20465;-36
2021/11/25 02:24:10;;;;;;;8.33;7.53;;;6.60;99.90;;;;;;5007155;28;20467;-36
2021/11/25 02:26:36;;;;;;;8.37;7.60;;;6.90;99.90;;;;;;5006271;28;20418;-36
2021/11/25 02:29:04;;;;;;;8.10;7.10;;;6.90;99.90;;;;;;5015451;28;20452;-36
2021/11/25 02:31:30;;;;;;;8.40;7.47;;;7.00;99.90;;;;;;5022690;28;20516;-36
2021/11/25 02:33:55;;;;;;;9.10;8.20;;;6.80;99.90;;;;;;5014569;28;20987;-36
2021/11/25 02:36:21;;;;;;;8.93;7.30;;;6.60;99.90;;;;;;5010528;28;20308;-36
2021/11/25 02:38:47;;;;;;;8.13;7.33;;;6.70;99.90;;;;;;5016211;28;20191;-36
2021/11/25 02:41:13;;;;;;;8.30;7.50;;;6.60;99.90;;;;;;5006097;28;20861;-36
2021/11/25 02:43:38;;;;;;;8.50;7.70;;;6.50;99.90;;;;;;5008094;28;20214;-36
2021/11/25 02:46:07;;;;;;;9.70;8.60;;;6.40;99.90;;;;;;5023102;28;20481;-36
2021/11/25 02:48:44;;;;;;;8.47;7.67;;;6.20;99.90;;;;;;5012359;28;20257;-36
2021/11/25 02:51:12;;;;;;;9.17;8.17;;;6.10;99.90;;;;;;5007768;28;20425;-36
2021/11/25 02:53:38;;;;;;;9.50;7.20;;;6.30;99.90;;;;;;5013225;28;20445;-36
2021/11/25 02:56:08;;;;;;;8.40;7.30;;;6.40;99.90;;;;;;5007385;28;20441;-36
2021/11/25 02:58:34;;;;;;;5.10;4.70;;;6.20;99.90;;;;;;5008866;28;20466;-36
2021/11/25 03:01:10;;;;;;;5.67;5.17;;;6.40;99.90;;;;;;5020659;28;20425;-36
2021/11/25 03:03:36;;;;;;;7.23;6.53;;;6.40;99.90;;;;;;5027919;28;20464;-36
2021/11/25 03:06:01;;;;;;;7.17;6.47;;;6.50;99.90;;;;;;5011489;28;20440;-36
2021/11/25 03:08:27;;;;;;;11.50;7.90;;;6.50;99.90;;;;;;5015188;28;20627;-36
2021/11/25 03:10:59;;;;;;;9.33;8.50;;;6.40;99.90;;;;;;5010982;28;20191;-36
2021/11/25 03:13:25;;;;;;;9.10;8.10;;;6.30;99.90;;;;;;5011943;28;20187;-36
2021/11/25 03:15:52;;;;;;;8.70;7.80;;;6.50;99.90;;;;;;5022485;28;20460;-36
2021/11/25 03:18:17;;;;;;;10.60;8.57;;;6.30;99.90;;;;;;5022898;28;20487;-36
2021/11/25 03:20:47;;;;;;;9.23;8.30;;;6.40;99.90;;;;;;5010829;28;20438;-36
2021/11/25 03:23:15;;;;;;;10.50;8.67;;;6.30;99.90;;;;;;5010405;28;20733;-36
2021/11/25 03:25:42;;;;;;;10.00;8.67;;;6.20;99.90;;;;;;5010875;28;20861;-36
2021/11/25 03:28:07;;;;;;;8.67;7.73;;;6.50;99.90;;;;;;5012048;28;20579;-37
2021/11/25 03:30:34;;;;;;;8.07;7.27;;;6.20;99.90;;;;;;5017843;28;21122;-37
2021/11/25 03:33:04;;;;;;;9.10;8.20;;;6.40;99.90;;;;;;5013681;28;20265;-36
2021/11/25 03:35:31;;;;;;;9.30;8.40;;;6.20;99.90;;;;;;5010379;28;20792;-36
2021/11/25 03:37:56;;;;;;;8.03;7.33;;;6.00;99.90;;;;;;5019882;28;20422;-36
2021/11/25 03:40:23;;;;;;;9.23;8.23;;;6.30;99.90;;;;;;5009463;28;20488;-36
2021/11/25 03:42:49;;;;;;;11.07;7.90;;;6.30;99.90;;;;;;5010097;28;20223;-36
2021/11/25 03:45:14;;;;;;;8.57;7.77;;;6.00;99.90;;;;;;5027013;28;20439;-36
2021/11/25 03:47:44;;;;;;;9.30;8.40;;;6.00;99.90;;;;;;5024253;28;20940;-36
2021/11/25 03:50:11;;;;;;;9.10;8.20;;;6.10;99.90;;;;;;5019351;28;20183;-36
2021/11/25 03:52:37;;;;;;;10.23;8.10;;;6.10;99.90;;;;;;5014310;28;20657;-36
2021/11/25 03:55:05;;;;;;;10.17;9.13;;;6.20;99.90;;;;;;5010408;28;20850;-36
2021/11/25 03:57:31;;;;;;;9.40;8.40;;;6.10;99.90;;;;;;5009817;28;20453;-36
2021/11/25 03:59:57;;;;;;;10.40;9.07;;;6.30;99.90;;;;;;5017355;28;20453;-36
2021/11/25 04:02:22;;;;;;;11.90;9.33;;;6.50;99.90;;;;;;5028647;28;20214;-36
2021/11/25 04:04:49;;;;;;;9.80;8.80;;;6.30;99.90;;;;;;5009755;28;20234;-36
2021/11/25 04:07:15;;;;;;;9.57;8.60;;;6.50;99.90;;;;;;5010437;28;20191;-36
2021/11/25 04:09:41;;;;;;;9.33;8.40;;;6.70;99.90;;;;;;5010567;28;20516;-36
2021/11/25 04:12:07;;;;;;;11.87;9.10;;;6.60;99.90;;;;;;5009739;28;20521;-36
2021/11/25 04:14:33;;;;;;;11.63;9.90;;;6.40;99.90;;;;;;5016034;28;20260;-36
2021/11/25 04:16:59;;;;;;;10.17;9.17;;;6.20;99.90;;;;;;5018990;28;20430;-36
2021/11/25 04:19:25;;;;;;;13.53;9.00;;;6.20;99.90;;;;;;5014071;28;20448;-36
2021/11/25 04:21:51;;;;;;;10.70;9.20;;;6.00;99.90;;;;;;5010286;28;20426;-37
2021/11/25 04:24:17;;;;;;;11.77;8.90;;;5.80;99.90;;;;;;5017379;28;20569;-36
2021/11/25 04:26:43;;;;;;;10.07;9.00;;;6.00;99.90;;;;;;5009864;28;20720;-36
2021/11/25 04:29:09;;;;;;;10.70;8.83;;;6.00;99.90;;;;;;5015476;28;20760;-36
2021/11/25 04:37:04;;;;;;;9.90;8.90;;;5.90;99.90;;;;;;5011649;28;20426;-36
2021/11/25 04:39:30;;;;;;;10.97;9.40;;;5.90;99.90;;;;;;5011799;28;20484;-36
2021/11/25 04:41:56;;;;;;;10.00;8.77;;;6.20;99.90;;;;;;5009333;28;20215;-36
2021/11/25 04:44:21;;;;;;;11.10;8.73;;;5.80;99.90;;;;;;5011782;28;20609;-36
2021/11/25 04:46:47;;;;;;;9.77;8.77;;;5.90;99.90;;;;;;5025013;28;20788;-36
2021/11/25 04:49:13;;;;;;;10.60;9.50;;;6.20;99.90;;;;;;5020566;28;20191;-36
2021/11/25 04:51:39;;;;;;;11.03;9.93;;;6.30;99.90;;;;;;5009370;28;20187;-36
2021/11/25 04:54:05;;;;;;;12.00;9.57;;;6.20;99.90;;;;;;5008787;28;20468;-36
2021/11/25 04:56:31;;;;;;;10.43;9.43;;;6.10;99.90;;;;;;5009074;28;20441;-36
2021/11/25 04:58:57;;;;;;;10.27;9.13;;;6.10;99.90;;;;;;5012080;28;20441;-36
2021/11/25 05:01:22;;;;;;;11.63;10.30;;;6.30;99.90;;;;;;5018415;28;20417;-36
2021/11/25 05:03:48;;;;;;;10.83;9.73;;;6.30;99.90;;;;;;5018997;28;20230;-36
2021/11/25 05:06:14;;;;;;;13.17;10.03;;;6.20;99.90;;;;;;5008771;28;20830;-36
2021/11/25 05:08:40;;;;;;;10.60;9.47;;;6.50;99.90;;;;;;5019721;28;20179;-36
2021/11/25 05:11:05;;;;;;;11.30;9.53;;;6.20;99.90;;;;;;5020417;28;20175;-36
2021/11/25 05:13:31;;;;;;;11.60;9.10;;;6.30;99.90;;;;;;5011264;28;20465;-36
2021/11/25 05:15:57;;;;;;;10.43;9.30;;;6.30;99.90;;;;;;5019594;28;20190;-36
2021/11/25 05:18:23;;;;;;;13.67;10.10;;;6.20;99.90;;;;;;5020235;28;20309;-36
2021/11/25 05:20:50;;;;;;;11.53;10.10;;;6.10;99.90;;;;;;5008973;28;20521;-36
2021/11/25 05:23:16;;;;;;;11.30;9.73;;;5.90;99.90;;;;;;5011760;28;20686;-36
2021/11/25 05:25:41;;;;;;;10.90;9.70;;;6.10;99.90;;;;;;5012265;28;20426;-36
2021/11/25 05:28:07;;;;;;;11.40;9.30;;;5.90;99.90;;;;;;5008630;28;20568;-36
2021/11/25 05:30:33;;;;;;;12.83;10.30;;;5.90;99.90;;;;;;5012811;28;20214;-36
2021/11/25 05:33:03;;;;;;;12.00;10.70;;;5.90;99.90;;;;;;5015301;28;20539;-36
2021/11/25 05:35:28;;;;;;;11.97;9.97;;;5.80;99.90;;;;;;5018457;28;20186;-36
2021/11/25 05:37:55;;;;;;;14.40;11.13;;;5.60;99.90;;;;;;5019229;28;20513;-36
2021/11/25 05:40:21;;;;;;;12.43;10.33;;;5.60;99.90;;;;;;5016395;28;20191;-36
2021/11/25 05:42:47;;;;;;;13.03;10.67;;;5.60;99.90;;;;;;5007367;28;21008;-36
2021/11/25 05:45:15;;;;;;;15.87;10.47;;;5.20;99.90;;;;;;5015508;28;20478;-36
2021/11/25 05:47:42;;;;;;;11.10;9.50;;;5.30;99.90;;;;;;5010127;28;20194;-37
2021/11/25 05:50:12;;;;;;;12.60;10.50;;;4.80;99.90;;;;;;5010079;28;20434;-36
2021/11/25 05:52:38;;;;;;;12.87;10.63;;;5.00;99.90;;;;;;5010048;28;20484;-36
2021/11/25 05:55:06;;;;;;;12.93;11.33;;;5.00;99.90;;;;;;5015374;28;20444;-36
2021/11/25 05:57:32;;;;;;;11.27;10.10;;;5.10;99.90;;;;;;5007516;28;20457;-36
2021/11/25 05:59:58;;;;;;;11.63;10.37;;;5.10;99.90;;;;;;5014022;28;21025;-36
2021/11/25 06:02:23;;;;;;;12.00;10.40;;;4.70;99.90;;;;;;5015058;28;20715;-36
2021/11/25 06:04:50;;;;;;;14.07;10.60;;;4.80;99.90;;;;;;5019500;28;20614;-36
2021/11/25 06:07:15;;;;;;;11.50;10.30;;;4.90;99.90;;;;;;5013408;28;20700;-36
2021/11/25 06:09:42;;;;;;;13.90;11.60;;;4.70;99.90;;;;;;5013335;28;20484;-36
2021/11/25 06:12:09;;;;;;;13.13;10.97;;;4.60;99.90;;;;;;5007782;28;20488;-36
2021/11/25 06:14:35;;;;;;;11.80;10.60;;;4.90;99.90;;;;;;5010810;28;20433;-36
2021/11/25 06:17:02;;;;;;;14.17;10.20;;;4.90;99.90;;;;;;5015889;28;20414;-36
2021/11/25 06:19:31;;;;;;;11.23;10.00;;;5.20;99.90;;;;;;5024592;28;20494;-36
2021/11/25 06:21:57;;;;;;;11.60;10.00;;;5.00;99.90;;;;;;5007748;28;20836;-36
2021/11/25 06:24:23;;;;;;;11.70;10.50;;;4.60;99.90;;;;;;5008977;28;20508;-36
2021/11/25 06:26:50;;;;;;;11.60;10.30;;;4.30;99.90;;;;;;5007406;28;21011;-36
2021/11/25 06:29:17;;;;;;;12.73;11.00;;;4.10;99.90;;;;;;5006988;28;20218;-36
2021/11/25 06:31:43;;;;;;;12.00;10.70;;;4.50;99.90;;;;;;5017716;28;20426;-36
2021/11/25 06:34:10;;;;;;;11.87;10.57;;;4.20;99.90;;;;;;5018041;28;20512;-36
2021/11/25 06:36:39;;;;;;;11.77;10.40;;;4.00;99.90;;;;;;5007176;28;20951;-36
2021/11/25 06:39:06;;;;;;;12.00;10.60;;;4.10;99.90;;;;;;5016606;28;20960;-36
2021/11/25 06:41:32;;;;;;;14.40;10.87;;;4.00;99.90;;;;;;5007714;28;20425;-36
2021/11/25 06:43:58;;;;;;;12.57;11.10;;;4.20;99.90;;;;;;5007119;28;20560;-36
2021/11/25 06:46:23;;;;;;;14.43;11.17;;;4.00;99.90;;;;;;5029671;28;20918;-36
2021/11/25 06:48:49;;;;;;;12.33;10.80;;;4.00;99.90;;;;;;5029484;28;20359;-36
2021/11/25 06:51:15;;;;;;;11.37;10.10;;;3.80;99.90;;;;;;5033399;28;20875;-36
2021/11/25 06:53:41;;;;;;;12.97;11.67;;;4.00;99.90;;;;;;5027149;28;20510;-36
2021/11/25 06:56:07;;;;;;;13.70;11.60;;;4.00;99.90;;;;;;5007058;28;20446;-36
2021/11/25 06:58:33;;;;;;;13.27;11.53;;;4.00;99.90;;;;;;5019986;28;20433;-36
2021/11/25 07:01:02;;;;;;;14.33;11.70;;;4.10;99.90;;;;;;5020434;28;20210;-36
2021/11/25 07:03:28;;;;;;;12.57;10.70;;;4.10;99.90;;;;;;5021125;28;20261;-36
2021/11/25 07:05:54;;;;;;;14.60;11.33;;;3.60;99.90;;;;;;5023072;28;20417;-36
2021/11/25 07:08:19;;;;;;;13.30;11.20;;;3.50;99.90;;;;;;5021057;28;20238;-36
2021/11/25 07:10:45;;;;;;;12.53;11.23;;;3.60;99.90;;;;;;5017069;28;20418;-36
2021/11/25 07:13:11;;;;;;;14.97;11.57;;;3.80;99.90;;;;;;5019346;28;20474;-36
2021/11/25 07:15:36;;;;;;;13.33;11.63;;;3.70;99.90;;;;;;5014540;28;20187;-36
2021/11/25 07:18:02;;;;;;;13.07;11.67;;;3.60;99.90;;;;;;5023345;28;20197;-36
2021/11/25 07:20:28;;;;;;;15.10;12.90;;;3.70;99.90;;;;;;5013307;28;20195;-36
2021/11/25 07:22:54;;;;;;;13.00;11.60;;;3.90;99.90;;;;;;5006155;28;20219;-36
2021/11/25 07:25:21;;;;;;;16.37;14.10;;;4.00;99.90;;;;;;5018433;28;20238;-36
2021/11/25 07:27:47;;;;;;;15.93;13.00;;;3.90;99.90;;;;;;5007118;28;20187;-36
2021/11/25 07:30:14;;;;;;;16.70;13.50;;;3.90;99.90;;;;;;5010496;28;20524;-36
2021/11/25 07:32:40;;;;;;;17.10;14.03;;;4.20;99.90;;;;;;5018690;28;20195;-36
2021/11/25 07:35:08;;;;;;;16.10;13.13;;;4.10;99.90;;;;;;5014164;28;20433;-36
2021/11/25 07:37:34;;;;;;;15.40;13.20;;;4.20;99.90;;;;;;5008164;28;20280;-36
2021/11/25 07:39:59;;;;;;;18.07;13.67;;;4.40;99.90;;;;;;5022715;28;20432;-36
2021/11/25 07:42:25;;;;;;;14.60;13.07;;;4.50;99.90;;;;;;5037385;28;20467;-36
2021/11/25 07:44:51;;;;;;;20.50;15.30;;;4.40;99.90;;;;;;5027517;28;20183;-36
2021/11/25 07:47:22;;;;;;;17.00;14.17;;;4.60;99.90;;;;;;5031231;28;20416;-36
2021/11/25 07:49:48;;;;;;;15.53;12.70;;;4.50;99.90;;;;;;5033705;28;20428;-36
2021/11/25 07:52:14;;;;;;;16.00;13.50;;;4.40;99.90;;;;;;5026581;28;20432;-36
2021/11/25 07:54:40;;;;;;;15.80;13.73;;;4.40;99.90;;;;;;5029195;28;20475;-36
2021/11/25 07:57:07;;;;;;;18.37;15.47;;;4.70;99.90;;;;;;5009883;28;20684;-36
2021/11/25 07:59:34;;;;;;;17.60;15.70;;;4.50;99.90;;;;;;5010791;28;20194;-36
2021/11/25 08:01:59;;;;;;;18.73;14.93;;;4.60;99.90;;;;;;5022442;28;20437;-36
2021/11/25 08:04:25;;;;;;;17.90;15.40;;;4.90;99.90;;;;;;5024899;28;20431;-36
2021/11/25 08:06:51;;;;;;;18.13;15.70;;;4.90;99.90;;;;;;5045168;28;20193;-36
2021/11/25 08:09:17;;;;;;;17.80;15.90;;;4.90;99.90;;;;;;5018036;28;20265;-36
2021/11/25 08:11:43;;;;;;;21.00;15.83;;;4.80;99.90;;;;;;5014426;28;20484;-36
2021/11/25 08:14:10;;;;;;;18.57;15.00;;;4.90;99.90;;;;;;5009357;28;20792;-36
2021/11/25 08:16:35;;;;;;;23.90;16.17;;;5.00;99.90;;;;;;5016903;28;20473;-36
2021/11/25 08:19:01;;;;;;;21.73;15.87;;;5.20;99.90;;;;;;5013349;28;20453;-36
2021/11/25 08:21:27;;;;;;;20.37;15.47;;;5.20;99.90;;;;;;5010115;28;20959;-36
2021/11/25 08:23:52;;;;;;;19.00;15.10;;;5.40;99.90;;;;;;5013133;28;20423;-36
2021/11/25 08:26:18;;;;;;;17.70;15.20;;;5.50;99.90;;;;;;5014272;28;20237;-36
2021/11/25 08:28:44;;;;;;;20.80;16.00;;;5.90;99.90;;;;;;5009732;28;20190;-36
2021/11/25 08:31:10;;;;;;;18.33;15.50;;;5.90;99.90;;;;;;5016976;28;20595;-36
2021/11/25 08:33:36;;;;;;;16.97;15.00;;;6.10;99.90;;;;;;5022493;28;20436;-36
2021/11/25 08:36:02;;;;;;;17.97;15.60;;;6.10;99.90;;;;;;5026533;28;20429;-36
2021/11/25 08:38:29;;;;;;;21.00;15.10;;;6.60;99.90;;;;;;5006791;28;20444;-36
2021/11/25 08:40:56;;;;;;;17.60;14.73;;;6.50;99.90;;;;;;5013530;28;20434;-36
2021/11/25 08:43:22;;;;;;;17.50;15.10;;;6.60;99.90;;;;;;5033094;28;20472;-36
2021/11/25 08:45:48;;;;;;;16.07;13.53;;;6.70;99.90;;;;;;5026024;28;20465;-36
2021/11/25 08:48:14;;;;;;;16.90;14.10;;;6.80;99.90;;;;;;5021778;28;20445;-36
2021/11/25 08:50:41;;;;;;;16.40;14.23;;;6.60;99.90;;;;;;5017389;28;20834;-37
2021/11/25 08:53:07;;;;;;;16.87;14.40;;;6.90;99.90;;;;;;5007808;28;20541;-36
2021/11/25 08:55:35;;;;;;;16.63;14.83;;;6.80;99.90;;;;;;5008680;28;20485;-36
2021/11/25 08:58:02;;;;;;;16.10;14.43;;;7.10;99.90;;;;;;5008043;28;20450;-36
2021/11/25 09:00:28;;;;;;;17.80;14.70;;;7.20;99.90;;;;;;5008184;28;20438;-36
2021/11/25 09:02:54;;;;;;;17.40;14.93;;;7.30;99.90;;;;;;5019358;28;20837;-36
2021/11/25 09:05:19;;;;;;;19.53;15.13;;;7.20;99.90;;;;;;5018108;28;20426;-36
2021/11/25 09:07:45;;;;;;;21.87;17.37;;;7.20;99.90;;;;;;5009213;28;20202;-36
2021/11/25 09:10:11;;;;;;;17.90;15.57;;;7.20;99.90;;;;;;5018181;28;20205;-36
2021/11/25 09:12:37;;;;;;;17.53;15.63;;;7.10;99.90;;;;;;5008845;28;20202;-36
2021/11/25 09:15:03;;;;;;;18.40;15.20;;;7.20;99.90;;;;;;5008020;28;20434;-36
2021/11/25 09:17:29;;;;;;;18.13;15.13;;;7.10;99.90;;;;;;5020595;28;20456;-36
2021/11/25 09:19:55;;;;;;;21.23;15.27;;;7.20;99.90;;;;;;5018453;28;20429;-37
2021/11/25 09:22:20;;;;;;;17.40;14.60;;;7.70;99.90;;;;;;5018959;28;20604;-36
2021/11/25 09:24:46;;;;;;;19.93;15.70;;;7.80;99.90;;;;;;5012265;28;20587;-36
2021/11/25 09:27:12;;;;;;;20.47;16.10;;;7.50;99.90;;;;;;5008704;28;20191;-36
2021/11/25 09:29:37;;;;;;;19.40;15.40;;;7.60;99.90;;;;;;5008045;28;20199;-36
2021/11/25 09:32:04;;;;;;;20.70;16.67;;;7.40;99.90;;;;;;5020698;28;20214;-36
2021/11/25 09:34:29;;;;;;;20.53;16.30;;;7.20;99.90;;;;;;5025063;28;20186;-36
2021/11/25 09:36:56;;;;;;;18.10;15.97;;;7.00;99.90;;;;;;5017377;28;20496;-36
2021/11/25 09:39:25;;;;;;;19.03;16.30;;;7.10;99.90;;;;;;5007427;28;20216;-37
2021/11/25 09:41:52;;;;;;;16.73;14.93;;;6.90;99.90;;;;;;5008238;28;20456;-36
2021/11/25 09:44:18;;;;;;;20.53;16.43;;;6.90;99.90;;;;;;5010688;28;20425;-36
2021/11/25 09:46:43;;;;;;;17.90;14.70;;;6.90;99.90;;;;;;5021663;28;20445;-36
2021/11/25 09:49:09;;;;;;;18.77;15.73;;;6.70;99.90;;;;;;5022818;28;20195;-36
2021/11/25 09:51:35;;;;;;;19.70;15.53;;;6.80;99.90;;;;;;5012182;28;20213;-36
2021/11/25 09:54:01;;;;;;;19.30;16.90;;;6.70;99.90;;;;;;5007676;28;20199;-36
2021/11/25 09:56:27;;;;;;;18.70;16.03;;;6.70;99.90;;;;;;5017245;28;20469;-36
2021/11/25 09:58:52;;;;;;;22.20;16.33;;;6.50;99.90;;;;;;5007890;28;20948;-36
2021/11/25 10:01:23;;;;;;;19.37;15.90;;;6.40;99.90;;;;;;5009234;28;20191;-36
2021/11/25 10:03:50;;;;;;;19.43;16.97;;;6.10;99.90;;;;;;5020041;28;20621;-36
2021/11/25 10:06:19;;;;;;;21.40;17.30;;;6.10;99.90;;;;;;5016896;28;20572;-36
2021/11/25 10:08:52;;;;;;;24.20;16.57;;;6.00;99.90;;;;;;5007975;28;20472;-36
2021/11/25 10:11:22;;;;;;;22.30;18.20;;;6.10;99.90;;;;;;5012303;28;20433;-36
2021/11/25 10:14:02;;;;;;;22.10;17.90;;;5.70;99.90;;;;;;5007299;28;20972;-36
2021/11/25 10:16:50;;;;;;;20.90;17.70;;;6.00;99.90;;;;;;5007731;28;20993;-36
2021/11/25 10:19:27;;;;;;;20.80;17.57;;;6.10;99.90;;;;;;5011755;28;20428;-36
2021/11/25 10:21:56;;;;;;;21.10;16.63;;;6.00;99.90;;;;;;5018513;28;20799;-36
2021/11/25 10:24:43;;;;;;;20.33;16.60;;;6.00;99.90;;;;;;5006731;28;20504;-36
2021/11/25 10:27:27;;;;;;;25.97;19.90;;;6.20;99.90;;;;;;5007821;28;20434;-36
2021/11/25 10:30:12;;;;;;;23.70;18.37;;;5.70;99.90;;;;;;5007446;28;20822;-36
2021/11/25 10:32:38;;;;;;;24.20;18.73;;;6.00;99.90;;;;;;5008897;28;20960;-36
2021/11/25 10:35:29;;;;;;;26.10;19.83;;;6.00;99.90;;;;;;5013717;28;20488;-36
2021/11/25 10:40:33;;;;;;;27.00;19.30;;;6.00;99.90;;;;;;5015232;28;20576;-36
2021/11/25 10:42:58;;;;;;;27.97;19.80;;;5.80;99.90;;;;;;5007697;28;20505;-36
2021/11/25 10:45:24;;;;;;;25.00;20.43;;;5.70;99.90;;;;;;5020036;28;20719;-36
2021/11/25 10:48:02;;;;;;;25.93;20.87;;;5.80;99.90;;;;;;5024717;28;20826;-36
2021/11/25 10:50:29;;;;;;;26.83;19.90;;;5.80;99.90;;;;;;5018387;28;20427;-36
2021/11/25 10:53:03;;;;;;;25.57;19.57;;;5.80;99.90;;;;;;5006540;28;20433;-36
2021/11/25 10:55:29;;;;;;;26.53;19.10;;;6.10;99.90;;;;;;5013829;28;20441;-36
2021/11/25 10:57:57;;;;;;;28.43;19.93;;;6.00;99.90;;;;;;5007150;28;20461;-36
2021/11/25 11:00:36;;;;;;;31.23;19.73;;;6.00;99.90;;;;;;5007197;28;20437;-36
2021/11/25 11:03:07;;;;;;;29.30;20.93;;;6.10;99.90;;;;;;5015906;28;21035;-36
2021/11/25 11:05:51;;;;;;;27.33;19.40;;;6.30;99.90;;;;;;5019006;28;20426;-36
2021/11/25 11:08:18;;;;;;;35.80;22.90;;;6.40;99.90;;;;;;5013407;28;20429;-36
2021/11/25 11:11:04;;;;;;;26.60;20.67;;;6.20;99.90;;;;;;5009474;28;20821;-36
2021/11/25 11:13:39;;;;;;;27.07;19.93;;;6.20;99.90;;;;;;5006402;28;20452;-36
2021/11/25 11:18:53;;;;;;;26.13;20.47;;;6.40;99.90;;;;;;5017307;28;20456;-36
2021/11/25 11:21:33;;;;;;;26.00;19.90;;;6.50;99.90;;;;;;5011515;28;20442;-36
2021/11/25 11:24:15;;;;;;;26.10;20.20;;;6.60;99.90;;;;;;5009286;28;20500;-36
2021/11/25 11:26:50;;;;;;;24.63;18.70;;;6.60;99.90;;;;;;5022289;28;20666;-36
2021/11/25 11:29:20;;;;;;;24.93;18.50;;;6.30;99.90;;;;;;5010724;28;20782;-36
2021/11/25 11:31:49;;;;;;;23.90;19.27;;;6.60;99.90;;;;;;5014648;28;20799;-36
2021/11/25 11:34:16;;;;;;;26.07;19.87;;;6.30;99.90;;;;;;5020758;28;20425;-36
2021/11/25 11:36:44;;;;;;;24.40;18.57;;;6.40;99.90;;;;;;5014195;28;20434;-36
2021/11/25 11:39:13;;;;;;;27.93;20.47;;;6.40;99.90;;;;;;5007730;28;20438;-36
2021/11/25 11:41:41;;;;;;;26.40;21.30;;;6.20;99.90;;;;;;5018000;28;20434;-36
2021/11/25 11:44:07;;;;;;;26.80;19.87;;;6.30;99.90;;;;;;5011578;28;20836;-36
2021/11/25 11:46:35;;;;;;;24.40;19.70;;;6.40;99.90;;;;;;5029778;28;20420;-36
2021/11/25 11:49:04;;;;;;;26.47;19.93;;;6.10;99.90;;;;;;5024564;28;20197;-36
2021/11/25 11:51:32;;;;;;;26.00;19.90;;;6.30;99.90;;;;;;5028456;28;20562;-36
2021/11/25 11:53:58;;;;;;;27.27;19.90;;;6.30;99.90;;;;;;5013694;28;20425;-36
2021/11/25 11:56:50;;;;;;;33.30;22.53;;;6.30;99.90;;;;;;5013558;28;20577;-35
2021/11/25 11:59:16;;;;;;;25.67;19.40;;;6.30;99.90;;;;;;5010800;28;20438;-36
2021/11/25 12:01:50;;;;;;;26.33;20.87;;;6.40;99.90;;;;;;5011761;28;20460;-36
2021/11/25 12:04:16;;;;;;;25.23;19.80;;;6.40;99.90;;;;;;5019818;28;20492;-36
2021/11/25 12:06:50;;;;;;;25.70;19.20;;;6.40;99.90;;;;;;5023326;28;20457;-36
2021/11/25 12:09:27;;;;;;;27.03;20.03;;;6.30;99.90;;;;;;5009923;28;20460;-36
2021/11/25 12:12:14;;;;;;;24.13;19.20;;;6.50;99.90;;;;;;5022596;28;20434;-36
2021/11/25 12:14:49;;;;;;;23.93;20.10;;;6.40;99.90;;;;;;5009538;28;20422;-36
2021/11/25 12:17:24;;;;;;;25.57;19.57;;;6.60;99.90;;;;;;5014433;28;20510;-36
2021/11/25 12:19:49;;;;;;;30.23;20.37;;;6.70;99.90;;;;;;5018658;28;20433;-36
2021/11/25 12:22:18;;;;;;;26.00;20.10;;;6.80;99.90;;;;;;5016468;28;20470;-36
2021/11/25 12:24:54;;;;;;;24.53;19.30;;;6.60;99.90;;;;;;5008139;28;20180;-36
2021/11/25 12:27:28;;;;;;;30.60;20.77;;;6.80;99.90;;;;;;5018333;28;20712;-36
2021/11/25 12:30:01;;;;;;;29.13;19.53;;;6.40;99.90;;;;;;5009533;28;20794;-36
2021/11/25 12:35:19;;;;;;;28.60;21.30;;;6.80;99.90;;;;;;5021464;28;20426;-36
2021/11/25 12:37:45;;;;;;;23.57;17.87;;;6.50;99.90;;;;;;5025966;28;20445;-36
2021/11/25 12:40:17;;;;;;;25.97;19.53;;;6.70;99.90;;;;;;5008542;28;20716;-37
2021/11/25 12:42:50;;;;;;;25.10;19.27;;;6.70;99.90;;;;;;5010982;28;20527;-36
2021/11/25 12:45:22;;;;;;;25.23;18.77;;;6.60;99.90;;;;;;5019248;28;20479;-36
2021/11/25 12:47:48;;;;;;;24.23;19.07;;;6.30;99.90;;;;;;5021365;28;20826;-36
2021/11/25 12:50:19;;;;;;;28.00;19.40;;;6.10;99.90;;;;;;5028294;28;20948;-36
2021/11/25 12:52:45;;;;;;;22.37;18.30;;;6.30;99.90;;;;;;5017272;28;20525;-36
2021/11/25 12:55:12;;;;;;;23.37;18.50;;;6.10;99.90;;;;;;5009333;28;20521;-36
2021/11/25 12:57:56;;;;;;;23.40;17.47;;;6.30;99.90;;;;;;5028453;28;20489;-36